sensor_id;sensor_type;location;lat;lon;timestamp;temperature;humidity
15554;DHT22;7878;44.632;10.942;2022-09-29T00:01:00;18.60;99.90
15554;DHT22;7878;44.632;10.942;2022-09-29T00:03:29;18.60;99.90
15554;DHT22;7878;44.632;10.942;2022-09-29T00:05:55;18.50;99.90
15554;DHT22;7878;44.632;10.942;2022-09-29T00:08:23;18.60;99.90
15554;DHT22;7878;44.632;10.942;2022-09-29T00:10:48;18.50;99.90
15554;DHT22;7878;44.632;10.942;2022-09-29T00:13:14;18.50;99.90
15554;DHT22;7878;44.632;10.942;2022-09-29T00:15:40;18.50;99.90
15554;DHT22;7878;44.632;10.942;2022-09-29T00:18:07;18.40;99.90
15554;DHT22;7878;44.632;10.942;2022-09-29T00:20:34;18.40;99.90
15554;DHT22;7878;44.632;10.942;2022-09-29T00:23:00;18.40;99.90
15554;DHT22;7878;44.632;10.942;2022-09-29T00:25:26;18.40;99.90
15554;DHT22;7878;44.632;10.942;2022-09-29T00:27:52;18.50;99.90
15554;DHT22;7878;44.632;10.942;2022-09-29T00:30:17;18.50;99.90
15554;DHT22;7878;44.632;10.942;2022-09-29T00:32:43;18.40;99.90
15554;DHT22;7878;44.632;10.942;2022-09-29T00:35:09;18.50;99.90
15554;DHT22;7878;44.632;10.942;2022-09-29T00:37:35;18.50;99.90
15554;DHT22;7878;44.632;10.942;2022-09-29T00:40:02;18.50;99.90
15554;DHT22;7878;44.632;10.942;2022-09-29T00:42:28;18.50;99.90
15554;DHT22;7878;44.632;10.942;2022-09-29T00:47:28;18.40;99.90
15554;DHT22;7878;44.632;10.942;2022-09-29T00:50:03;18.40;99.90
15554;DHT22;7878;44.632;10.942;2022-09-29T00:52:38;18.40;99.90
15554;DHT22;7878;44.632;10.942;2022-09-29T00:55:13;18.40;99.90
15554;DHT22;7878;44.632;10.942;2022-09-29T00:57:47;18.40;99.90
15554;DHT22;7878;44.632;10.942;2022-09-29T01:00:14;18.40;99.90
15554;DHT22;7878;44.632;10.942;2022-09-29T01:03:00;18.30;99.90
15554;DHT22;7878;44.632;10.942;2022-09-29T01:05:31;18.40;99.90
15554;DHT22;7878;44.632;10.942;2022-09-29T01:08:01;18.30;99.90
15554;DHT22;7878;44.632;10.942;2022-09-29T01:10:30;18.20;99.90
15554;DHT22;7878;44.632;10.942;2022-09-29T01:12:56;18.20;99.90
15554;DHT22;7878;44.632;10.942;2022-09-29T01:15:22;18.10;99.90
15554;DHT22;7878;44.632;10.942;2022-09-29T01:17:48;18.10;99.90
15554;DHT22;7878;44.632;10.942;2022-09-29T01:20:20;18.10;99.90
15554;DHT22;7878;44.632;10.942;2022-09-29T01:23:11;18.20;99.90
15554;DHT22;7878;44.632;10.942;2022-09-29T01:34:40;18.00;99.90
15554;DHT22;7878;44.632;10.942;2022-09-29T01:43:11;18.00;99.90
15554;DHT22;7878;44.632;10.942;2022-09-29T01:45:46;17.90;99.90
15554;DHT22;7878;44.632;10.942;2022-09-29T01:48:17;17.90;99.90
15554;DHT22;7878;44.632;10.942;2022-09-29T01:50:49;17.80;99.90
15554;DHT22;7878;44.632;10.942;2022-09-29T01:53:21;17.80;99.90
15554;DHT22;7878;44.632;10.942;2022-09-29T01:55:51;17.80;99.90
15554;DHT22;7878;44.632;10.942;2022-09-29T01:58:22;17.70;99.90
15554;DHT22;7878;44.632;10.942;2022-09-29T02:00:53;17.80;99.90
15554;DHT22;7878;44.632;10.942;2022-09-29T02:03:23;17.80;99.90
15554;DHT22;7878;44.632;10.942;2022-09-29T02:05:55;17.70;99.90
15554;DHT22;7878;44.632;10.942;2022-09-29T02:11:07;17.70;99.90
15554;DHT22;7878;44.632;10.942;2022-09-29T02:13:39;17.70;99.90
15554;DHT22;7878;44.632;10.942;2022-09-29T02:16:12;17.70;99.90
15554;DHT22;7878;44.632;10.942;2022-09-29T02:21:35;17.60;99.90
15554;DHT22;7878;44.632;10.942;2022-09-29T02:24:01;17.60;99.90
15554;DHT22;7878;44.632;10.942;2022-09-29T02:26:30;17.60;99.90
15554;DHT22;7878;44.632;10.942;2022-09-29T02:29:00;17.60;99.90
15554;DHT22;7878;44.632;10.942;2022-09-29T02:31:26;17.70;99.90
15554;DHT22;7878;44.632;10.942;2022-09-29T02:33:52;17.70;99.90
15554;DHT22;7878;44.632;10.942;2022-09-29T02:38:52;17.60;99.90
15554;DHT22;7878;44.632;10.942;2022-09-29T02:46:32;17.60;99.90
15554;DHT22;7878;44.632;10.942;2022-09-29T02:51:56;17.70;99.90
15554;DHT22;7878;44.632;10.942;2022-09-29T03:00:10;17.70;99.90
15554;DHT22;7878;44.632;10.942;2022-09-29T03:02:37;17.70;99.90
15554;DHT22;7878;44.632;10.942;2022-09-29T03:05:08;17.70;99.90
15554;DHT22;7878;44.632;10.942;2022-09-29T03:07:37;17.70;99.90
15554;DHT22;7878;44.632;10.942;2022-09-29T03:10:04;17.70;99.90
15554;DHT22;7878;44.632;10.942;2022-09-29T03:12:30;17.80;99.90
15554;DHT22;7878;44.632;10.942;2022-09-29T03:14:56;17.80;99.90
15554;DHT22;7878;44.632;10.942;2022-09-29T03:17:21;17.80;99.90
15554;DHT22;7878;44.632;10.942;2022-09-29T03:19:47;17.80;99.90
15554;DHT22;7878;44.632;10.942;2022-09-29T03:22:13;17.80;99.90
15554;DHT22;7878;44.632;10.942;2022-09-29T03:24:39;17.70;99.90
15554;DHT22;7878;44.632;10.942;2022-09-29T03:27:04;17.70;99.90
15554;DHT22;7878;44.632;10.942;2022-09-29T03:29:31;17.70;99.90
15554;DHT22;7878;44.632;10.942;2022-09-29T03:31:58;17.70;99.90
15554;DHT22;7878;44.632;10.942;2022-09-29T03:34:24;17.70;99.90
15554;DHT22;7878;44.632;10.942;2022-09-29T03:36:50;17.70;99.90
15554;DHT22;7878;44.632;10.942;2022-09-29T03:39:15;17.60;99.90
15554;DHT22;7878;44.632;10.942;2022-09-29T03:41:41;17.60;99.90
15554;DHT22;7878;44.632;10.942;2022-09-29T03:44:06;17.60;99.90
15554;DHT22;7878;44.632;10.942;2022-09-29T03:46:32;17.50;99.90
15554;DHT22;7878;44.632;10.942;2022-09-29T03:48:58;17.50;99.90
15554;DHT22;7878;44.632;10.942;2022-09-29T03:51:24;17.50;99.90
15554;DHT22;7878;44.632;10.942;2022-09-29T03:53:49;17.50;99.90
15554;DHT22;7878;44.632;10.942;2022-09-29T03:56:15;17.50;99.90
15554;DHT22;7878;44.632;10.942;2022-09-29T03:58:41;17.50;99.90
15554;DHT22;7878;44.632;10.942;2022-09-29T04:01:07;17.50;99.90
15554;DHT22;7878;44.632;10.942;2022-09-29T04:03:32;17.60;99.90
15554;DHT22;7878;44.632;10.942;2022-09-29T04:05:58;17.50;99.90
15554;DHT22;7878;44.632;10.942;2022-09-29T04:08:24;17.50;99.90
15554;DHT22;7878;44.632;10.942;2022-09-29T04:10:49;17.50;99.90
15554;DHT22;7878;44.632;10.942;2022-09-29T04:13:15;17.50;99.90
15554;DHT22;7878;44.632;10.942;2022-09-29T04:15:41;17.60;99.90
15554;DHT22;7878;44.632;10.942;2022-09-29T04:18:07;17.50;99.90
15554;DHT22;7878;44.632;10.942;2022-09-29T04:20:32;17.50;99.90
15554;DHT22;7878;44.632;10.942;2022-09-29T04:22:58;17.50;99.90
15554;DHT22;7878;44.632;10.942;2022-09-29T04:25:26;17.40;99.90
15554;DHT22;7878;44.632;10.942;2022-09-29T04:27:52;17.40;99.90
15554;DHT22;7878;44.632;10.942;2022-09-29T04:30:18;17.40;99.90
15554;DHT22;7878;44.632;10.942;2022-09-29T04:32:44;17.40;99.90
15554;DHT22;7878;44.632;10.942;2022-09-29T04:35:10;17.30;99.90
15554;DHT22;7878;44.632;10.942;2022-09-29T04:37:36;17.30;99.90
15554;DHT22;7878;44.632;10.942;2022-09-29T04:40:02;17.20;99.90
15554;DHT22;7878;44.632;10.942;2022-09-29T04:42:29;17.20;99.90
15554;DHT22;7878;44.632;10.942;2022-09-29T04:44:55;17.10;99.90
15554;DHT22;7878;44.632;10.942;2022-09-29T04:47:21;17.10;99.90
15554;DHT22;7878;44.632;10.942;2022-09-29T04:49:46;17.20;99.90
15554;DHT22;7878;44.632;10.942;2022-09-29T04:52:12;17.20;99.90
15554;DHT22;7878;44.632;10.942;2022-09-29T04:54:39;17.20;99.90
15554;DHT22;7878;44.632;10.942;2022-09-29T04:57:05;17.20;99.90
15554;DHT22;7878;44.632;10.942;2022-09-29T04:59:31;17.10;99.90
15554;DHT22;7878;44.632;10.942;2022-09-29T05:01:57;17.10;99.90
15554;DHT22;7878;44.632;10.942;2022-09-29T05:04:23;17.20;99.90
15554;DHT22;7878;44.632;10.942;2022-09-29T05:06:49;17.20;99.90
15554;DHT22;7878;44.632;10.942;2022-09-29T05:09:14;17.20;99.90
15554;DHT22;7878;44.632;10.942;2022-09-29T05:11:40;17.20;99.90
15554;DHT22;7878;44.632;10.942;2022-09-29T05:14:06;17.20;99.90
15554;DHT22;7878;44.632;10.942;2022-09-29T05:16:32;17.30;99.90
15554;DHT22;7878;44.632;10.942;2022-09-29T05:18:57;17.20;99.90
15554;DHT22;7878;44.632;10.942;2022-09-29T05:21:23;17.20;99.90
15554;DHT22;7878;44.632;10.942;2022-09-29T05:23:49;17.20;99.90
15554;DHT22;7878;44.632;10.942;2022-09-29T05:26:15;17.20;99.90
15554;DHT22;7878;44.632;10.942;2022-09-29T05:28:45;17.20;99.90
15554;DHT22;7878;44.632;10.942;2022-09-29T05:31:12;17.20;99.90
15554;DHT22;7878;44.632;10.942;2022-09-29T05:33:38;17.20;99.90
15554;DHT22;7878;44.632;10.942;2022-09-29T05:36:05;17.20;99.90
15554;DHT22;7878;44.632;10.942;2022-09-29T05:38:37;17.20;99.90
15554;DHT22;7878;44.632;10.942;2022-09-29T05:41:04;17.20;99.90
15554;DHT22;7878;44.632;10.942;2022-09-29T05:43:30;17.20;99.90
15554;DHT22;7878;44.632;10.942;2022-09-29T05:46:03;17.20;99.90
15554;DHT22;7878;44.632;10.942;2022-09-29T05:48:30;17.20;99.90
15554;DHT22;7878;44.632;10.942;2022-09-29T05:50:56;17.20;99.90
15554;DHT22;7878;44.632;10.942;2022-09-29T05:53:22;17.20;99.90
15554;DHT22;7878;44.632;10.942;2022-09-29T05:55:48;17.20;99.90
15554;DHT22;7878;44.632;10.942;2022-09-29T05:58:13;17.20;99.90
15554;DHT22;7878;44.632;10.942;2022-09-29T06:00:39;17.30;99.90
15554;DHT22;7878;44.632;10.942;2022-09-29T06:03:05;17.30;99.90
15554;DHT22;7878;44.632;10.942;2022-09-29T06:05:31;17.30;99.90
15554;DHT22;7878;44.632;10.942;2022-09-29T06:07:56;17.30;99.90
15554;DHT22;7878;44.632;10.942;2022-09-29T06:10:23;17.30;99.90
15554;DHT22;7878;44.632;10.942;2022-09-29T06:12:48;17.40;99.90
15554;DHT22;7878;44.632;10.942;2022-09-29T06:15:14;17.40;99.90
15554;DHT22;7878;44.632;10.942;2022-09-29T06:17:40;17.40;99.90
15554;DHT22;7878;44.632;10.942;2022-09-29T06:20:06;17.40;99.90
15554;DHT22;7878;44.632;10.942;2022-09-29T06:22:32;17.50;99.90
15554;DHT22;7878;44.632;10.942;2022-09-29T06:24:58;17.50;99.90
15554;DHT22;7878;44.632;10.942;2022-09-29T06:27:24;17.50;99.90
15554;DHT22;7878;44.632;10.942;2022-09-29T06:29:49;17.50;99.90
15554;DHT22;7878;44.632;10.942;2022-09-29T06:32:16;17.50;99.90
15554;DHT22;7878;44.632;10.942;2022-09-29T06:34:41;17.40;99.90
15554;DHT22;7878;44.632;10.942;2022-09-29T06:37:26;17.40;99.90
15554;DHT22;7878;44.632;10.942;2022-09-29T06:40:05;17.40;99.90
15554;DHT22;7878;44.632;10.942;2022-09-29T06:42:32;17.50;99.90
15554;DHT22;7878;44.632;10.942;2022-09-29T06:44:58;17.60;99.90
15554;DHT22;7878;44.632;10.942;2022-09-29T06:47:23;17.60;99.90
15554;DHT22;7878;44.632;10.942;2022-09-29T06:49:49;17.70;99.90
15554;DHT22;7878;44.632;10.942;2022-09-29T06:52:16;17.70;99.90
15554;DHT22;7878;44.632;10.942;2022-09-29T06:54:42;17.80;99.90
15554;DHT22;7878;44.632;10.942;2022-09-29T06:57:08;17.80;99.90
15554;DHT22;7878;44.632;10.942;2022-09-29T06:59:34;17.90;99.90
15554;DHT22;7878;44.632;10.942;2022-09-29T07:02:00;17.90;99.90
15554;DHT22;7878;44.632;10.942;2022-09-29T07:04:25;17.90;99.90
15554;DHT22;7878;44.632;10.942;2022-09-29T07:06:51;18.00;99.90
15554;DHT22;7878;44.632;10.942;2022-09-29T07:09:17;18.00;99.90
15554;DHT22;7878;44.632;10.942;2022-09-29T07:11:46;18.00;99.90
15554;DHT22;7878;44.632;10.942;2022-09-29T07:14:13;18.10;99.90
15554;DHT22;7878;44.632;10.942;2022-09-29T07:16:39;18.00;99.90
15554;DHT22;7878;44.632;10.942;2022-09-29T07:19:04;18.10;99.90
15554;DHT22;7878;44.632;10.942;2022-09-29T07:21:30;18.10;99.90
15554;DHT22;7878;44.632;10.942;2022-09-29T07:23:56;18.20;99.90
15554;DHT22;7878;44.632;10.942;2022-09-29T07:26:21;18.20;99.90
15554;DHT22;7878;44.632;10.942;2022-09-29T07:28:47;18.30;99.90
15554;DHT22;7878;44.632;10.942;2022-09-29T07:31:15;18.40;99.90
15554;DHT22;7878;44.632;10.942;2022-09-29T07:33:46;18.40;99.90
15554;DHT22;7878;44.632;10.942;2022-09-29T07:36:13;18.50;99.90
15554;DHT22;7878;44.632;10.942;2022-09-29T07:38:39;18.60;99.90
15554;DHT22;7878;44.632;10.942;2022-09-29T07:41:09;18.70;99.90
15554;DHT22;7878;44.632;10.942;2022-09-29T07:43:36;18.70;99.90
15554;DHT22;7878;44.632;10.942;2022-09-29T07:46:01;18.70;99.90
15554;DHT22;7878;44.632;10.942;2022-09-29T07:48:29;18.70;99.90
15554;DHT22;7878;44.632;10.942;2022-09-29T07:51:14;18.70;99.90
15554;DHT22;7878;44.632;10.942;2022-09-29T07:53:40;18.70;99.90
15554;DHT22;7878;44.632;10.942;2022-09-29T07:56:08;18.80;99.90
15554;DHT22;7878;44.632;10.942;2022-09-29T07:58:35;18.90;99.90
15554;DHT22;7878;44.632;10.942;2022-09-29T08:01:03;18.90;99.90
15554;DHT22;7878;44.632;10.942;2022-09-29T08:03:31;19.00;99.90
15554;DHT22;7878;44.632;10.942;2022-09-29T08:05:57;19.10;99.90
15554;DHT22;7878;44.632;10.942;2022-09-29T08:08:24;19.20;99.90
15554;DHT22;7878;44.632;10.942;2022-09-29T08:10:50;19.20;99.90
15554;DHT22;7878;44.632;10.942;2022-09-29T08:13:16;19.30;99.90
15554;DHT22;7878;44.632;10.942;2022-09-29T08:15:41;19.40;99.90
15554;DHT22;7878;44.632;10.942;2022-09-29T08:18:07;19.40;99.90
15554;DHT22;7878;44.632;10.942;2022-09-29T08:20:34;19.60;99.90
15554;DHT22;7878;44.632;10.942;2022-09-29T08:23:00;19.70;99.90
15554;DHT22;7878;44.632;10.942;2022-09-29T08:25:25;19.90;99.90
15554;DHT22;7878;44.632;10.942;2022-09-29T08:27:52;19.90;99.90
15554;DHT22;7878;44.632;10.942;2022-09-29T08:30:18;20.00;99.90
15554;DHT22;7878;44.632;10.942;2022-09-29T08:32:50;19.90;99.90
15554;DHT22;7878;44.632;10.942;2022-09-29T08:35:16;20.00;99.90
15554;DHT22;7878;44.632;10.942;2022-09-29T08:37:41;20.00;99.90
15554;DHT22;7878;44.632;10.942;2022-09-29T08:40:07;20.00;99.90
15554;DHT22;7878;44.632;10.942;2022-09-29T08:43:30;19.90;99.90
15554;DHT22;7878;44.632;10.942;2022-09-29T08:45:40;19.80;99.90
15554;DHT22;7878;44.632;10.942;2022-09-29T08:48:15;19.80;99.90
15554;DHT22;7878;44.632;10.942;2022-09-29T08:50:53;19.80;99.90
15554;DHT22;7878;44.632;10.942;2022-09-29T08:53:21;19.80;99.90
15554;DHT22;7878;44.632;10.942;2022-09-29T08:56:02;19.80;99.90
15554;DHT22;7878;44.632;10.942;2022-09-29T08:58:29;19.90;99.90
15554;DHT22;7878;44.632;10.942;2022-09-29T09:03:51;20.00;99.90
15554;DHT22;7878;44.632;10.942;2022-09-29T09:20:32;20.30;99.90
15554;DHT22;7878;44.632;10.942;2022-09-29T09:23:14;20.30;99.90
15554;DHT22;7878;44.632;10.942;2022-09-29T09:25:56;20.30;99.90
15554;DHT22;7878;44.632;10.942;2022-09-29T09:31:03;20.30;99.90
15554;DHT22;7878;44.632;10.942;2022-09-29T09:36:10;20.40;99.90
15554;DHT22;7878;44.632;10.942;2022-09-29T09:38:55;20.50;99.90
15554;DHT22;7878;44.632;10.942;2022-09-29T09:41:23;20.50;99.90
15554;DHT22;7878;44.632;10.942;2022-09-29T09:43:58;20.60;99.90
15554;DHT22;7878;44.632;10.942;2022-09-29T09:46:41;20.80;99.90
15554;DHT22;7878;44.632;10.942;2022-09-29T09:49:25;21.00;99.90
15554;DHT22;7878;44.632;10.942;2022-09-29T09:54:49;21.20;99.90
15554;DHT22;7878;44.632;10.942;2022-09-29T09:57:30;21.40;99.90
15554;DHT22;7878;44.632;10.942;2022-09-29T10:00:05;21.50;99.90
15554;DHT22;7878;44.632;10.942;2022-09-29T10:02:37;21.60;99.90
15554;DHT22;7878;44.632;10.942;2022-09-29T10:05:08;21.80;99.90
15554;DHT22;7878;44.632;10.942;2022-09-29T10:07:35;22.00;99.90
15554;DHT22;7878;44.632;10.942;2022-09-29T10:10:02;22.20;99.90
15554;DHT22;7878;44.632;10.942;2022-09-29T10:12:30;22.30;99.90
15554;DHT22;7878;44.632;10.942;2022-09-29T10:15:04;22.30;99.90
15554;DHT22;7878;44.632;10.942;2022-09-29T10:17:40;22.50;99.90
15554;DHT22;7878;44.632;10.942;2022-09-29T10:20:08;22.60;99.90
15554;DHT22;7878;44.632;10.942;2022-09-29T10:22:34;22.70;99.90
15554;DHT22;7878;44.632;10.942;2022-09-29T10:25:17;22.80;99.90
15554;DHT22;7878;44.632;10.942;2022-09-29T10:27:49;23.00;99.90
15554;DHT22;7878;44.632;10.942;2022-09-29T10:30:19;23.20;99.90
15554;DHT22;7878;44.632;10.942;2022-09-29T10:32:46;23.90;99.90
15554;DHT22;7878;44.632;10.942;2022-09-29T10:35:23;24.10;99.90
15554;DHT22;7878;44.632;10.942;2022-09-29T10:38:01;24.10;99.90
15554;DHT22;7878;44.632;10.942;2022-09-29T10:40:27;24.30;99.90
15554;DHT22;7878;44.632;10.942;2022-09-29T10:42:55;24.50;99.90
15554;DHT22;7878;44.632;10.942;2022-09-29T10:45:28;25.90;99.90
15554;DHT22;7878;44.632;10.942;2022-09-29T10:50:29;25.90;99.90
15554;DHT22;7878;44.632;10.942;2022-09-29T10:52:59;26.20;99.90
15554;DHT22;7878;44.632;10.942;2022-09-29T10:55:34;26.10;99.90
15554;DHT22;7878;44.632;10.942;2022-09-29T10:58:32;26.60;99.90
15554;DHT22;7878;44.632;10.942;2022-09-29T11:01:14;26.80;99.90
15554;DHT22;7878;44.632;10.942;2022-09-29T11:06:30;28.30;99.90
15554;DHT22;7878;44.632;10.942;2022-09-29T11:11:58;29.30;99.90
15554;DHT22;7878;44.632;10.942;2022-09-29T11:19:56;31.40;99.90
15554;DHT22;7878;44.632;10.942;2022-09-29T11:39:25;34.60;94.70
15554;DHT22;7878;44.632;10.942;2022-09-29T11:50:58;33.60;88.20
15554;DHT22;7878;44.632;10.942;2022-09-29T12:04:22;31.60;88.90
15554;DHT22;7878;44.632;10.942;2022-09-29T12:07:41;30.70;96.00
15554;DHT22;7878;44.632;10.942;2022-09-29T12:10:31;29.80;94.80
15554;DHT22;7878;44.632;10.942;2022-09-29T12:12:45;29.10;95.20
15554;DHT22;7878;44.632;10.942;2022-09-29T12:15:23;28.50;92.90
15554;DHT22;7878;44.632;10.942;2022-09-29T12:17:53;28.30;95.80
15554;DHT22;7878;44.632;10.942;2022-09-29T12:20:25;28.00;94.20
15554;DHT22;7878;44.632;10.942;2022-09-29T12:22:52;27.60;96.10
15554;DHT22;7878;44.632;10.942;2022-09-29T12:25:23;27.30;96.40
15554;DHT22;7878;44.632;10.942;2022-09-29T12:27:54;27.00;96.40
15554;DHT22;7878;44.632;10.942;2022-09-29T12:30:26;27.00;95.40
15554;DHT22;7878;44.632;10.942;2022-09-29T12:33:05;26.90;95.60
15554;DHT22;7878;44.632;10.942;2022-09-29T12:38:58;26.40;96.60
15554;DHT22;7878;44.632;10.942;2022-09-29T12:41:29;26.10;95.80
15554;DHT22;7878;44.632;10.942;2022-09-29T12:46:52;25.60;92.00
15554;DHT22;7878;44.632;10.942;2022-09-29T12:51:50;25.30;96.40
15554;DHT22;7878;44.632;10.942;2022-09-29T12:54:36;25.20;96.70
15554;DHT22;7878;44.632;10.942;2022-09-29T12:57:15;25.10;94.70
15554;DHT22;7878;44.632;10.942;2022-09-29T12:59:52;25.00;96.60
15554;DHT22;7878;44.632;10.942;2022-09-29T13:13:33;24.90;96.00
15554;DHT22;7878;44.632;10.942;2022-09-29T13:21:50;24.80;96.00
15554;DHT22;7878;44.632;10.942;2022-09-29T13:27:24;25.00;94.20
15554;DHT22;7878;44.632;10.942;2022-09-29T13:29:56;25.10;92.30
15554;DHT22;7878;44.632;10.942;2022-09-29T13:32:24;25.10;94.60
15554;DHT22;7878;44.632;10.942;2022-09-29T13:34:57;25.10;95.90
15554;DHT22;7878;44.632;10.942;2022-09-29T13:37:26;25.00;95.40
15554;DHT22;7878;44.632;10.942;2022-09-29T13:39:55;24.90;95.70
15554;DHT22;7878;44.632;10.942;2022-09-29T13:42:35;24.90;96.30
15554;DHT22;7878;44.632;10.942;2022-09-29T13:47:51;24.90;94.70
15554;DHT22;7878;44.632;10.942;2022-09-29T13:58:26;25.20;95.00
15554;DHT22;7878;44.632;10.942;2022-09-29T14:00:55;25.20;94.90
15554;DHT22;7878;44.632;10.942;2022-09-29T14:03:42;25.10;96.00
15554;DHT22;7878;44.632;10.942;2022-09-29T14:06:23;25.00;92.30
15554;DHT22;7878;44.632;10.942;2022-09-29T14:09:16;24.80;92.60
15554;DHT22;7878;44.632;10.942;2022-09-29T14:11:47;24.70;92.20
15554;DHT22;7878;44.632;10.942;2022-09-29T14:28:06;24.50;92.70
15554;DHT22;7878;44.632;10.942;2022-09-29T14:30:43;24.40;91.80
15554;DHT22;7878;44.632;10.942;2022-09-29T14:33:15;24.40;94.80
15554;DHT22;7878;44.632;10.942;2022-09-29T14:35:54;24.30;94.30
15554;DHT22;7878;44.632;10.942;2022-09-29T14:38:32;24.30;92.80
15554;DHT22;7878;44.632;10.942;2022-09-29T14:43:46;24.30;93.50
15554;DHT22;7878;44.632;10.942;2022-09-29T14:49:54;24.20;93.50
15554;DHT22;7878;44.632;10.942;2022-09-29T15:02:15;24.10;93.60
15554;DHT22;7878;44.632;10.942;2022-09-29T15:04:14;24.10;92.80
15554;DHT22;7878;44.632;10.942;2022-09-29T15:06:49;24.10;94.10
15554;DHT22;7878;44.632;10.942;2022-09-29T15:09:21;24.10;94.30
15554;DHT22;7878;44.632;10.942;2022-09-29T15:11:52;24.00;94.00
15554;DHT22;7878;44.632;10.942;2022-09-29T15:19:43;23.90;93.40
15554;DHT22;7878;44.632;10.942;2022-09-29T15:25:27;23.90;93.50
15554;DHT22;7878;44.632;10.942;2022-09-29T15:28:00;23.90;95.20
15554;DHT22;7878;44.632;10.942;2022-09-29T15:30:27;23.90;95.00
15554;DHT22;7878;44.632;10.942;2022-09-29T15:33:17;23.80;93.50
15554;DHT22;7878;44.632;10.942;2022-09-29T15:35:47;23.80;91.00
15554;DHT22;7878;44.632;10.942;2022-09-29T15:38:38;23.70;92.80
15554;DHT22;7878;44.632;10.942;2022-09-29T15:46:55;23.60;91.20
15554;DHT22;7878;44.632;10.942;2022-09-29T15:49:29;23.60;90.70
15554;DHT22;7878;44.632;10.942;2022-09-29T15:52:09;23.50;91.60
15554;DHT22;7878;44.632;10.942;2022-09-29T15:54:38;23.50;92.10
15554;DHT22;7878;44.632;10.942;2022-09-29T16:02:53;23.40;91.60
15554;DHT22;7878;44.632;10.942;2022-09-29T16:05:28;23.30;90.60
15554;DHT22;7878;44.632;10.942;2022-09-29T16:08:13;23.30;91.30
15554;DHT22;7878;44.632;10.942;2022-09-29T16:10:50;23.30;87.20
15554;DHT22;7878;44.632;10.942;2022-09-29T16:13:25;23.20;87.70
15554;DHT22;7878;44.632;10.942;2022-09-29T16:15:56;23.20;91.50
15554;DHT22;7878;44.632;10.942;2022-09-29T16:18:25;23.20;91.00
15554;DHT22;7878;44.632;10.942;2022-09-29T16:20:55;23.20;91.40
15554;DHT22;7878;44.632;10.942;2022-09-29T16:24:10;23.20;91.90
15554;DHT22;7878;44.632;10.942;2022-09-29T16:29:21;23.10;91.60
15554;DHT22;7878;44.632;10.942;2022-09-29T16:31:49;23.10;90.60
15554;DHT22;7878;44.632;10.942;2022-09-29T16:36:57;23.10;91.80
15554;DHT22;7878;44.632;10.942;2022-09-29T16:39:26;23.00;90.80
15554;DHT22;7878;44.632;10.942;2022-09-29T16:41:57;23.00;91.90
15554;DHT22;7878;44.632;10.942;2022-09-29T16:44:29;23.00;91.70
15554;DHT22;7878;44.632;10.942;2022-09-29T16:49:34;22.90;92.00
15554;DHT22;7878;44.632;10.942;2022-09-29T16:58:00;22.90;90.30
15554;DHT22;7878;44.632;10.942;2022-09-29T17:00:26;22.80;92.20
15554;DHT22;7878;44.632;10.942;2022-09-29T17:02:54;22.70;92.50
15554;DHT22;7878;44.632;10.942;2022-09-29T17:05:20;22.80;92.50
15554;DHT22;7878;44.632;10.942;2022-09-29T17:07:47;22.70;92.60
15554;DHT22;7878;44.632;10.942;2022-09-29T17:10:18;22.70;92.60
15554;DHT22;7878;44.632;10.942;2022-09-29T17:12:45;22.60;91.90
15554;DHT22;7878;44.632;10.942;2022-09-29T17:15:16;22.50;92.00
15554;DHT22;7878;44.632;10.942;2022-09-29T17:17:46;22.50;91.80
15554;DHT22;7878;44.632;10.942;2022-09-29T17:20:15;22.50;91.10
15554;DHT22;7878;44.632;10.942;2022-09-29T17:22:43;22.50;91.60
15554;DHT22;7878;44.632;10.942;2022-09-29T17:25:12;22.50;91.90
15554;DHT22;7878;44.632;10.942;2022-09-29T17:27:38;22.50;92.10
15554;DHT22;7878;44.632;10.942;2022-09-29T17:30:24;22.40;91.20
15554;DHT22;7878;44.632;10.942;2022-09-29T17:32:53;22.40;91.30
15554;DHT22;7878;44.632;10.942;2022-09-29T17:35:22;22.40;91.00
15554;DHT22;7878;44.632;10.942;2022-09-29T17:37:48;22.40;90.80
15554;DHT22;7878;44.632;10.942;2022-09-29T17:43:28;22.30;90.00
15554;DHT22;7878;44.632;10.942;2022-09-29T17:45:55;22.30;90.70
15554;DHT22;7878;44.632;10.942;2022-09-29T17:48:23;22.30;91.60
15554;DHT22;7878;44.632;10.942;2022-09-29T17:50:50;22.30;91.80
15554;DHT22;7878;44.632;10.942;2022-09-29T17:53:17;22.30;91.50
15554;DHT22;7878;44.632;10.942;2022-09-29T17:55:46;22.30;90.60
15554;DHT22;7878;44.632;10.942;2022-09-29T17:58:14;22.30;91.30
15554;DHT22;7878;44.632;10.942;2022-09-29T18:00:42;22.20;90.60
15554;DHT22;7878;44.632;10.942;2022-09-29T18:03:10;22.20;91.20
15554;DHT22;7878;44.632;10.942;2022-09-29T18:05:41;22.20;91.40
15554;DHT22;7878;44.632;10.942;2022-09-29T18:08:12;22.20;91.80
15554;DHT22;7878;44.632;10.942;2022-09-29T18:13:13;22.20;91.10
15554;DHT22;7878;44.632;10.942;2022-09-29T18:15:39;22.20;91.70
15554;DHT22;7878;44.632;10.942;2022-09-29T18:18:06;22.20;91.90
15554;DHT22;7878;44.632;10.942;2022-09-29T18:20:34;22.20;91.80
15554;DHT22;7878;44.632;10.942;2022-09-29T18:23:04;22.20;91.70
15554;DHT22;7878;44.632;10.942;2022-09-29T18:25:31;22.10;91.60
15554;DHT22;7878;44.632;10.942;2022-09-29T18:27:58;22.20;92.10
15554;DHT22;7878;44.632;10.942;2022-09-29T18:30:26;22.20;92.00
15554;DHT22;7878;44.632;10.942;2022-09-29T18:32:54;22.10;91.80
15554;DHT22;7878;44.632;10.942;2022-09-29T18:35:27;22.10;92.10
15554;DHT22;7878;44.632;10.942;2022-09-29T18:37:53;22.10;92.10
15554;DHT22;7878;44.632;10.942;2022-09-29T18:40:19;22.10;92.20
15554;DHT22;7878;44.632;10.942;2022-09-29T18:42:48;22.10;92.20
15554;DHT22;7878;44.632;10.942;2022-09-29T18:45:21;22.20;92.20
15554;DHT22;7878;44.632;10.942;2022-09-29T18:47:54;22.10;92.20
15554;DHT22;7878;44.632;10.942;2022-09-29T18:50:28;22.10;92.20
15554;DHT22;7878;44.632;10.942;2022-09-29T18:52:55;22.10;92.20
15554;DHT22;7878;44.632;10.942;2022-09-29T18:55:23;22.10;92.40
15554;DHT22;7878;44.632;10.942;2022-09-29T18:57:50;22.10;92.30
15554;DHT22;7878;44.632;10.942;2022-09-29T19:00:19;22.10;92.60
15554;DHT22;7878;44.632;10.942;2022-09-29T19:02:45;22.00;92.50
15554;DHT22;7878;44.632;10.942;2022-09-29T19:05:18;22.10;92.30
15554;DHT22;7878;44.632;10.942;2022-09-29T19:07:46;22.00;92.50
15554;DHT22;7878;44.632;10.942;2022-09-29T19:10:14;22.00;92.40
15554;DHT22;7878;44.632;10.942;2022-09-29T19:12:42;22.00;92.70
15554;DHT22;7878;44.632;10.942;2022-09-29T19:15:14;22.00;92.60
15554;DHT22;7878;44.632;10.942;2022-09-29T19:17:41;22.00;92.50
15554;DHT22;7878;44.632;10.942;2022-09-29T19:20:07;21.90;92.70
15554;DHT22;7878;44.632;10.942;2022-09-29T19:22:33;21.90;92.60
15554;DHT22;7878;44.632;10.942;2022-09-29T19:25:08;21.90;92.80
15554;DHT22;7878;44.632;10.942;2022-09-29T19:27:37;21.90;92.90
15554;DHT22;7878;44.632;10.942;2022-09-29T19:30:03;21.90;93.10